Peter R. Weiss — WDF8566 — position and weather

sailwx.info

Track history (hours):
 
Tides and Currents Weather Stations Pressure Air Temp Water Temp Dewpoint Dewpoint Depression Visibility Wind Speed Wind Dir Waves Ship Positions

Peter R. Weiss

Owner: Billybey Ferry Company LLC, Weehawken, NJ. More information available from US FCC via Universal Licensing System and Coast Guard Vessel Documentation Center.

Last reported at 2017-Nov-17 00:14 UTC. Time now 2017-Nov-19 10:14 UTC.
Position N 40°42' W 073°58'.

Length 26 m.

Type: Passenger vessel. MMSI: 367496240.

Date/timePositionNaut miles runAvg speedWind from/ knotsBaromVisibWave heightAir tempDewpointWater temp
2017-Nov-17 00:14N 40°42' W 073°58'1 5.4
2017-Nov-17 00:00N 40°42' W 073°60'3 5.3
2017-Nov-16 23:30N 40°45' W 073°58'2 4.5
2017-Nov-16 23:00N 40°46' W 073°56'2 4.7
2017-Nov-16 22:31N 40°45' W 073°58'2 4.7
2017-Nov-16 22:00N 40°42' W 073°59'1 2.0
2017-Nov-16 21:30N 40°42' W 073°58'0 0.0
2017-Nov-15 22:41N 40°42' W 073°58'0 0.0
2017-Nov-15 22:31N 40°42' W 073°58'0 0.0
2017-Nov-15 22:00N 40°42' W 073°58'0 0.0
2017-Nov-15 21:30N 40°42' W 073°58'0 0.0
2017-Nov-15 21:00N 40°42' W 073°58'0 0.0
2017-Nov-15 20:30N 40°42' W 073°58'0 0.0
2017-Nov-15 20:01N 40°42' W 073°58'0 0.0
2017-Nov-15 19:30N 40°42' W 073°58'0 0.0
2017-Nov-15 19:00N 40°42' W 073°58'0 0.1
2017-Nov-15 18:31N 40°42' W 073°58'3 5.9
2017-Nov-15 18:00N 40°43' W 074°02'  
2017-Nov-12 16:11N 40°43' W 074°03'0 1.6
2017-Nov-12 16:00N 40°43' W 074°03'0 0.7
2017-Nov-12 15:31N 40°43' W 074°02'  
Track history (hours):
 
Tides and Currents Weather Stations Pressure Air Temp Water Temp Dewpoint Dewpoint Depression Visibility Wind Speed Wind Dir Waves Ship Positions

Peter R. Weiss

Owner: Billybey Ferry Company LLC, Weehawken, NJ. More information available from US FCC via Universal Licensing System and Coast Guard Vessel Documentation Center.

Last reported at 2017-Nov-17 00:14 UTC. Time now 2017-Nov-19 10:14 UTC.
Position N 40°42' W 073°58'.

Length 26 m.

Type: Passenger vessel. MMSI: 367496240.

Date/timePositionNaut miles runAvg speedWind from/ knotsBaromVisibWave heightAir tempDewpointWater temp
2017-Nov-17 00:14N 40°42' W 073°58'1 5.4
2017-Nov-17 00:00N 40°42' W 073°60'3 5.3
2017-Nov-16 23:30N 40°45' W 073°58'2 4.5
2017-Nov-16 23:00N 40°46' W 073°56'2 4.7
2017-Nov-16 22:31N 40°45' W 073°58'2 4.7
2017-Nov-16 22:00N 40°42' W 073°59'1 2.0
2017-Nov-16 21:30N 40°42' W 073°58'0 0.0
2017-Nov-15 22:41N 40°42' W 073°58'0 0.0
2017-Nov-15 22:31N 40°42' W 073°58'0 0.0
2017-Nov-15 22:00N 40°42' W 073°58'0 0.0
2017-Nov-15 21:30N 40°42' W 073°58'0 0.0
2017-Nov-15 21:00N 40°42' W 073°58'0 0.0
2017-Nov-15 20:30N 40°42' W 073°58'0 0.0
2017-Nov-15 20:01N 40°42' W 073°58'0 0.0
2017-Nov-15 19:30N 40°42' W 073°58'0 0.0
2017-Nov-15 19:00N 40°42' W 073°58'0 0.1
2017-Nov-15 18:31N 40°42' W 073°58'3 5.9
2017-Nov-15 18:00N 40°43' W 074°02'  
2017-Nov-12 16:11N 40°43' W 074°03'0 1.6
2017-Nov-12 16:00N 40°43' W 074°03'0 0.7
2017-Nov-12 15:31N 40°43' W 074°02'  

Dump ship's entire track history